Time;durP1;ratioP1;P1;durP2;ratioP2;P2;SDS_P1;SDS_P2;PMS_P1;PMS_P2;Temp;Humidity;BMP_temperature;BMP_pressure;BME280_temperature;BME280_humidity;BME280_pressure;Samples;Min_cycle;Max_cycle;Signal;HPM_P1;HPM_P2
2021/08/30 00:00:07;;;;;;;12.88;10.60;;;;;;;12.22;87.75;99780.61;1786683;79;20997;-88
2021/08/30 00:02:33;;;;;;;13.35;10.55;;;;;;;12.18;87.87;99785.33;1740577;79;21002;-88
2021/08/30 00:04:59;;;;;;;13.83;10.90;;;;;;;12.16;88.07;99792.06;1764237;79;21038;-88
2021/08/30 00:07:25;;;;;;;10.78;8.80;;;;;;;12.15;88.04;99782.47;1757054;79;21025;-88
2021/08/30 00:09:51;;;;;;;10.65;9.20;;;;;;;12.13;88.27;99789.69;1808460;78;21053;-88
2021/08/30 00:12:18;;;;;;;11.22;9.68;;;;;;;12.13;88.38;99780.42;1802342;79;21001;-88
2021/08/30 00:14:44;;;;;;;12.10;9.53;;;;;;;12.13;88.36;99783.56;1766477;79;21480;-88
2021/08/30 00:17:09;;;;;;;11.33;10.13;;;;;;;12.10;88.41;99784.66;1769202;81;20962;-88
2021/08/30 00:19:36;;;;;;;12.78;10.10;;;;;;;12.05;88.39;99784.24;1776786;79;20961;-88
2021/08/30 00:22:03;;;;;;;13.08;10.60;;;;;;;12.02;88.35;99788.97;1776016;81;21025;-88
2021/08/30 00:24:29;;;;;;;13.70;11.60;;;;;;;12.00;88.53;99781.15;1777378;79;20990;-88
2021/08/30 00:26:56;;;;;;;14.23;10.35;;;;;;;11.99;88.62;99787.91;1781296;80;21052;-88
2021/08/30 00:29:25;;;;;;;10.70;9.38;;;;;;;11.96;88.65;99789.00;1781662;79;20990;-88
2021/08/30 00:31:50;;;;;;;12.28;10.08;;;;;;;11.95;88.88;99794.78;1754330;80;21027;-88
2021/08/30 00:34:16;;;;;;;13.48;9.78;;;;;;;11.93;88.77;99795.87;1772782;80;21055;-88
2021/08/30 00:36:42;;;;;;;11.97;10.10;;;;;;;11.91;88.62;99802.63;1768598;79;20930;-88
2021/08/30 00:39:07;;;;;;;10.85;8.95;;;;;;;11.90;88.86;99797.46;1774334;80;21550;-88
2021/08/30 00:41:34;;;;;;;10.98;9.40;;;;;;;11.88;88.85;99802.89;1766666;79;21489;-87
2021/08/30 00:43:59;;;;;;;13.55;10.63;;;;;;;11.84;88.81;99809.39;1781979;80;21510;-87
2021/08/30 00:46:25;;;;;;;13.00;9.58;;;;;;;11.80;88.83;99815.89;1775363;80;20952;-88
2021/08/30 00:48:51;;;;;;;9.85;8.83;;;;;;;11.77;89.13;99818.80;1776963;80;21001;-88
2021/08/30 00:51:19;;;;;;;14.13;9.95;;;;;;;11.78;89.39;99816.98;1776910;80;21029;-88
2021/08/30 00:53:49;;;;;;;9.93;8.93;;;;;;;11.77;89.83;99812.67;1780390;80;21447;-88
2021/08/30 00:56:17;;;;;;;11.68;10.18;;;;;;;11.77;90.08;99814.00;1776881;80;21010;-88
2021/08/30 00:58:44;;;;;;;13.98;10.48;;;;;;;11.76;89.86;99814.98;1797337;79;20954;-88
2021/08/30 01:01:12;;;;;;;11.35;9.98;;;;;;;11.72;89.67;99820.52;1785827;79;21056;-88
2021/08/30 01:03:39;;;;;;;13.58;10.35;;;;;;;11.68;89.81;99816.47;1781333;79;20927;-88
2021/08/30 01:06:43;;;;;;;10.80;8.83;;;;;;;11.68;90.24;99821.76;1775391;80;20958;-88
2021/08/30 01:09:31;;;;;;;9.58;8.50;;;;;;;11.70;90.36;99824.25;1777319;79;21074;-88
2021/08/30 01:12:14;;;;;;;14.25;9.75;;;;;;;11.69;90.13;99822.09;1775724;81;21526;-89
2021/08/30 01:14:54;;;;;;;15.68;10.93;;;;;;;11.70;90.26;99822.45;1774657;80;20934;-89
2021/08/30 01:17:22;;;;;;;14.45;11.15;;;;;;;11.69;90.01;99827.88;1774221;80;21037;-87
2021/08/30 01:19:53;;;;;;;16.65;12.75;;;;;;;11.68;90.17;99823.08;1785045;79;21032;-87
2021/08/30 01:22:21;;;;;;;19.90;12.67;;;;;;;11.69;90.63;99819.45;1774708;80;21579;-87
2021/08/30 01:24:50;;;;;;;15.93;10.30;;;;;;;11.71;90.85;99822.82;1744101;81;21012;-87
2021/08/30 01:27:17;;;;;;;12.85;10.23;;;;;;;11.72;90.84;99821.02;1777441;79;20982;-87
2021/08/30 01:29:55;;;;;;;12.93;10.15;;;;;;;11.71;90.74;99824.14;1794252;79;21487;-87
2021/08/30 01:32:34;;;;;;;10.18;9.10;;;;;;;11.70;90.69;99825.09;1802881;79;20985;-87
2021/08/30 01:35:05;;;;;;;11.22;8.50;;;;;;;11.71;90.86;99826.78;1747534;80;20994;-87
2021/08/30 01:37:34;;;;;;;15.00;10.23;;;;;;;11.74;91.22;99825.17;1742623;82;21002;-86
2021/08/30 01:40:02;;;;;;;10.18;8.58;;;;;;;11.75;91.33;99815.46;1769350;80;21013;-87
2021/08/30 01:42:29;;;;;;;9.40;7.47;;;;;;;11.80;91.46;99813.73;1773290;79;21026;-87
2021/08/30 01:44:57;;;;;;;12.25;8.65;;;;;;;11.80;91.50;99807.96;1779688;80;21005;-87
2021/08/30 01:47:25;;;;;;;9.00;8.05;;;;;;;11.81;91.45;99807.47;1777042;79;21501;-87
2021/08/30 01:50:03;;;;;;;9.43;7.17;;;;;;;11.82;91.51;99802.56;1775590;80;21025;-87
2021/08/30 01:52:35;;;;;;;9.70;7.62;;;;;;;11.83;91.74;99795.80;1774664;80;22201;-87
2021/08/30 01:55:14;;;;;;;8.95;6.97;;;;;;;11.84;91.66;99793.53;1776180;79;21080;-88
2021/08/30 01:57:44;;;;;;;9.40;7.15;;;;;;;11.86;91.86;99793.42;1775860;80;21078;-87
2021/08/30 02:02:45;;;;;;;10.80;6.80;;;;;;;11.90;92.06;99786.39;1777132;79;21045;-87
2021/08/30 02:05:11;;;;;;;13.95;8.03;;;;;;;11.90;92.08;99783.75;1777512;79;21024;-87
2021/08/30 02:07:37;;;;;;;10.10;7.45;;;;;;;11.91;92.12;99781.48;1803321;79;20977;-87
2021/08/30 02:10:04;;;;;;;9.98;8.13;;;;;;;11.91;92.26;99775.33;1795271;79;21058;-87
2021/08/30 02:12:30;;;;;;;10.48;8.90;;;;;;;11.91;92.26;99771.37;1778233;80;21508;-87
2021/08/30 02:14:56;;;;;;;10.65;8.05;;;;;;;11.88;92.30;99768.53;1799667;79;21017;-87
2021/08/30 02:17:27;;;;;;;12.37;8.00;;;;;;;11.88;92.39;99769.85;1763271;79;21092;-87
2021/08/30 02:20:04;;;;;;;10.68;8.35;;;;;;;11.89;92.50;99769.36;1790999;79;20992;-88
2021/08/30 02:22:39;;;;;;;11.80;8.38;;;;;;;11.89;92.56;99766.72;1807603;79;20999;-87
2021/08/30 02:25:15;;;;;;;12.43;7.70;;;;;;;11.89;92.46;99766.72;1781719;80;20985;-88
2021/08/30 02:27:49;;;;;;;10.68;8.28;;;;;;;11.89;92.67;99766.23;1776488;80;20922;-87
2021/08/30 02:30:25;;;;;;;11.33;8.10;;;;;;;11.89;92.75;99769.36;1801426;79;21017;-88
2021/08/30 02:32:53;;;;;;;11.73;9.23;;;;;;;11.88;92.57;99766.38;1782329;78;20974;-88
2021/08/30 02:35:28;;;;;;;10.08;8.53;;;;;;;11.89;92.83;99758.78;1779024;79;21013;-88
2021/08/30 02:37:55;;;;;;;13.38;9.20;;;;;;;11.90;92.89;99758.64;1748783;80;21003;-88
2021/08/30 02:40:27;;;;;;;12.05;9.38;;;;;;;11.91;92.81;99757.69;1777114;80;20967;-88
2021/08/30 02:42:56;;;;;;;9.53;7.90;;;;;;;11.93;92.92;99754.90;1798770;79;21524;-88
2021/08/30 02:45:24;;;;;;;11.12;8.68;;;;;;;11.94;93.03;99757.88;1786762;79;21476;-88
2021/08/30 02:47:52;;;;;;;10.48;8.48;;;;;;;11.94;93.18;99759.20;1774607;80;20968;-88
2021/08/30 02:50:18;;;;;;;11.60;8.38;;;;;;;11.94;93.07;99761.84;1774517;80;21029;-88
2021/08/30 02:52:47;;;;;;;11.48;8.18;;;;;;;11.97;92.93;99760.27;1774615;80;21084;-88
2021/08/30 02:55:13;;;;;;;11.73;8.80;;;;;;;11.97;92.99;99758.94;1777016;79;20998;-88
2021/08/30 02:57:41;;;;;;;12.18;8.98;;;;;;;11.97;92.72;99757.62;1774435;80;20966;-88
2021/08/30 03:00:09;;;;;;;10.63;8.13;;;;;;;11.97;92.65;99758.45;1799735;79;21013;-88
2021/08/30 03:02:38;;;;;;;11.40;9.25;;;;;;;11.92;92.91;99740.02;1775828;79;20951;-88
2021/08/30 03:05:05;;;;;;;10.13;8.45;;;;;;;12.01;93.34;99750.25;1781862;79;21436;-88
2021/08/30 03:07:31;;;;;;;10.08;7.95;;;;;;;12.03;93.39;99750.47;1756740;79;21026;-88
2021/08/30 03:09:59;;;;;;;13.70;9.90;;;;;;;12.05;93.47;99759.61;1769202;79;21064;-88
2021/08/30 03:12:27;;;;;;;10.78;8.65;;;;;;;12.07;93.43;99755.84;1781832;79;20977;-88
2021/08/30 03:14:58;;;;;;;10.80;8.15;;;;;;;12.09;93.31;99767.13;1776870;78;20958;-88
2021/08/30 03:17:30;;;;;;;10.08;8.35;;;;;;;12.08;93.26;99768.11;1791711;79;21476;-88
2021/08/30 03:19:58;;;;;;;13.68;8.58;;;;;;;12.10;93.13;99774.08;1794715;79;20981;-88
2021/08/30 03:22:25;;;;;;;11.20;8.78;;;;;;;12.12;93.21;99772.16;1774956;81;20958;-88
2021/08/30 03:24:51;;;;;;;10.30;8.33;;;;;;;12.11;93.35;99774.91;1775859;79;21050;-88
2021/08/30 03:27:18;;;;;;;10.00;7.80;;;;;;;12.08;93.21;99782.66;1774445;80;20990;-88
2021/08/30 03:29:45;;;;;;;10.30;8.08;;;;;;;12.07;93.31;99791.53;1774472;80;21006;-88
2021/08/30 03:32:14;;;;;;;12.90;8.00;;;;;;;12.04;93.11;99801.06;1791166;79;20999;-88
2021/08/30 03:34:41;;;;;;;11.30;8.53;;;;;;;12.04;93.20;99793.62;1793400;79;20997;-88
2021/08/30 03:37:09;;;;;;;9.40;7.42;;;;;;;12.05;93.29;99800.11;1771333;80;20977;-88
2021/08/30 03:39:35;;;;;;;14.35;9.15;;;;;;;12.04;93.48;99797.09;1776171;79;20993;-88
2021/08/30 03:42:04;;;;;;;10.48;8.38;;;;;;;12.07;93.50;99807.41;1775974;80;20989;-88
2021/08/30 03:44:31;;;;;;;9.28;8.35;;;;;;;12.08;93.43;99807.78;1792469;79;21048;-88
2021/08/30 03:46:57;;;;;;;11.15;7.80;;;;;;;12.10;93.44;99805.81;1758238;79;20978;-88
2021/08/30 03:49:25;;;;;;;12.18;9.15;;;;;;;12.13;93.29;99808.20;1754750;80;20986;-88
2021/08/30 03:51:53;;;;;;;12.53;9.88;;;;;;;12.15;93.21;99801.47;1781974;80;20992;-87
2021/08/30 03:54:21;;;;;;;10.45;8.30;;;;;;;12.15;93.09;99794.37;1777736;79;21009;-88
2021/08/30 03:56:48;;;;;;;10.00;7.80;;;;;;;12.15;93.38;99790.89;1775269;80;21222;-88
2021/08/30 03:59:16;;;;;;;11.57;9.03;;;;;;;12.15;93.56;99790.40;1776513;79;21429;-88
2021/08/30 04:01:46;;;;;;;12.73;9.20;;;;;;;12.15;93.39;99794.37;1776724;79;21001;-88
2021/08/30 04:04:21;;;;;;;10.82;8.85;;;;;;;12.15;93.67;99794.86;1775774;79;20958;-88
2021/08/30 04:06:44;;;;;;;13.93;8.85;;;;;;;12.14;93.69;99792.70;1773502;79;21120;-88
2021/08/30 04:09:15;;;;;;;11.88;7.40;;;;;;;12.15;93.62;99791.72;1778407;79;21045;-88
2021/08/30 04:11:40;;;;;;;10.08;7.50;;;;;;;12.17;93.56;99794.22;1775478;80;21047;-88
2021/08/30 04:14:06;;;;;;;9.73;7.85;;;;;;;12.18;93.80;99787.98;1770545;79;21500;-88
2021/08/30 04:16:32;;;;;;;10.28;7.45;;;;;;;12.18;93.90;99801.20;1744992;80;21018;-88
2021/08/30 04:18:58;;;;;;;8.43;6.60;;;;;;;12.17;93.91;99800.37;1751698;81;20982;-88
2021/08/30 04:21:24;;;;;;;8.48;6.70;;;;;;;12.19;93.83;99802.86;1777840;79;21026;-88
2021/08/30 04:23:50;;;;;;;8.50;6.53;;;;;;;12.21;93.91;99800.94;1776325;81;21028;-88
2021/08/30 04:26:16;;;;;;;8.98;6.22;;;;;;;12.18;93.87;99800.71;1776780;81;20993;-88
2021/08/30 04:28:42;;;;;;;10.18;7.42;;;;;;;12.18;94.04;99799.39;1778500;79;21034;-88
2021/08/30 04:31:08;;;;;;;13.45;8.00;;;;;;;12.18;94.13;99799.39;1769713;79;21518;-88
2021/08/30 04:33:33;;;;;;;11.22;7.40;;;;;;;12.18;94.15;99804.68;1766830;79;20967;-88
2021/08/30 04:36:00;;;;;;;11.15;7.62;;;;;;;12.19;94.26;99795.77;1778815;79;20997;-88
2021/08/30 04:38:26;;;;;;;9.80;8.28;;;;;;;12.22;94.17;99804.41;1775156;79;21527;-88
2021/08/30 04:40:52;;;;;;;10.05;9.05;;;;;;;12.23;94.31;99803.43;1788793;79;20970;-88
2021/08/30 04:43:18;;;;;;;13.08;8.25;;;;;;;12.24;94.10;99800.67;1776062;79;20986;-88
2021/08/30 04:45:44;;;;;;;11.25;8.15;;;;;;;12.26;94.39;99798.70;1781192;79;20965;-88
2021/08/30 04:48:10;;;;;;;11.50;7.85;;;;;;;12.27;94.41;99799.05;1761236;79;20997;-89
2021/08/30 04:50:37;;;;;;;9.85;7.58;;;;;;;12.29;94.25;99798.44;1808917;78;21001;-88
2021/08/30 04:53:03;;;;;;;10.40;8.90;;;;;;;12.31;94.03;99797.00;1808055;79;21006;-88
2021/08/30 04:55:29;;;;;;;11.88;8.15;;;;;;;12.33;94.39;99793.70;1808512;78;20935;-88
2021/08/30 04:57:56;;;;;;;10.90;8.48;;;;;;;12.34;94.46;99788.30;1806965;78;20985;-89
2021/08/30 05:00:22;;;;;;;9.70;8.05;;;;;;;12.37;94.64;99789.81;1770842;79;21548;-88
2021/08/30 05:02:47;;;;;;;8.55;7.60;;;;;;;12.38;94.25;99787.54;1751024;82;21007;-88
2021/08/30 05:05:13;;;;;;;11.08;8.30;;;;;;;12.41;94.54;99795.20;1772202;79;20953;-88
2021/08/30 05:07:39;;;;;;;12.45;8.10;;;;;;;12.43;94.48;99796.72;1776695;80;20997;-88
2021/08/30 05:10:06;;;;;;;10.20;8.00;;;;;;;12.47;94.55;99792.02;1804254;79;21484;-88
2021/08/30 05:12:33;;;;;;;10.65;8.15;;;;;;;12.48;94.95;99802.95;1808959;78;20945;-88
2021/08/30 05:14:59;;;;;;;9.08;7.55;;;;;;;12.51;94.99;99806.64;1786924;79;21472;-89
2021/08/30 05:17:25;;;;;;;10.25;7.15;;;;;;;12.55;95.11;99813.33;1776650;80;20973;-88
2021/08/30 05:19:51;;;;;;;11.00;8.30;;;;;;;12.56;94.90;99813.67;1796478;79;20974;-88
2021/08/30 05:22:17;;;;;;;11.93;8.83;;;;;;;12.58;94.62;99814.88;1804793;79;20941;-89
2021/08/30 05:24:43;;;;;;;13.30;7.78;;;;;;;12.59;94.70;99815.22;1780348;79;20954;-89
2021/08/30 05:27:09;;;;;;;9.83;8.83;;;;;;;12.61;94.97;99813.28;1787344;79;20970;-89
2021/08/30 05:29:35;;;;;;;10.05;7.35;;;;;;;12.63;94.93;99824.06;1776821;81;21495;-88
2021/08/30 05:32:01;;;;;;;10.72;8.33;;;;;;;12.65;95.07;99823.45;1776866;79;20965;-88
2021/08/30 05:34:27;;;;;;;9.55;8.25;;;;;;;12.68;94.97;99825.82;1787704;79;21005;-88
2021/08/30 05:36:53;;;;;;;9.90;8.53;;;;;;;12.71;94.84;99822.07;1781431;78;20942;-88
2021/08/30 05:39:19;;;;;;;9.83;8.23;;;;;;;12.74;95.15;99814.35;1776965;80;21484;-89
2021/08/30 05:41:45;;;;;;;10.65;7.90;;;;;;;12.74;95.15;99811.21;1780495;79;20994;-89
2021/08/30 05:44:11;;;;;;;9.23;8.00;;;;;;;12.77;95.31;99813.59;1781914;80;20979;-88
2021/08/30 05:46:37;;;;;;;13.15;9.73;;;;;;;12.81;94.99;99809.67;1762862;79;21007;-88
2021/08/30 05:49:03;;;;;;;11.83;8.25;;;;;;;12.85;95.71;99815.53;1759626;79;21002;-89
2021/08/30 05:51:29;;;;;;;10.45;8.48;;;;;;;12.86;95.72;99807.92;1779407;79;21080;-88
2021/08/30 05:53:55;;;;;;;13.18;8.75;;;;;;;12.90;95.87;99802.73;1808983;79;21038;-88
2021/08/30 05:56:21;;;;;;;11.80;9.38;;;;;;;12.94;95.77;99801.47;1809174;79;22160;-88
2021/08/30 05:58:47;;;;;;;10.40;8.98;;;;;;;13.00;95.80;99804.05;1808409;79;20985;-88
2021/08/30 06:01:13;;;;;;;12.20;10.15;;;;;;;13.03;95.71;99802.42;1808894;79;20993;-89
2021/08/30 06:03:39;;;;;;;13.05;9.00;;;;;;;13.06;95.63;99795.06;1808837;79;21010;-89
2021/08/30 06:06:05;;;;;;;13.05;9.53;;;;;;;13.09;95.70;99789.95;1809157;79;21619;-89
2021/08/30 06:08:31;;;;;;;13.62;9.55;;;;;;;13.09;95.54;99788.13;1806788;78;21033;-89
2021/08/30 06:10:58;;;;;;;11.93;8.38;;;;;;;13.13;95.72;99790.88;1796754;79;21033;-89
2021/08/30 06:13:24;;;;;;;10.55;8.90;;;;;;;13.18;96.00;99791.76;1806366;79;21467;-88
2021/08/30 06:15:51;;;;;;;15.80;11.63;;;;;;;13.19;96.16;99789.45;1751094;82;21423;-89
2021/08/30 06:18:17;;;;;;;10.90;9.08;;;;;;;13.22;96.25;99794.47;1770388;79;20974;-89
2021/08/30 06:20:44;;;;;;;11.33;9.28;;;;;;;13.25;96.47;99804.81;1751157;82;21074;-89
2021/08/30 06:23:11;;;;;;;15.35;10.43;;;;;;;13.29;96.61;99803.58;1751023;82;20987;-88
2021/08/30 06:25:37;;;;;;;13.80;10.70;;;;;;;13.32;96.43;99811.71;1786902;79;20973;-89
2021/08/30 06:28:03;;;;;;;13.13;10.03;;;;;;;13.35;96.44;99816.23;1776666;81;21448;-89
2021/08/30 06:30:30;;;;;;;14.68;9.98;;;;;;;13.41;96.31;99808.22;1781598;79;21009;-89
2021/08/30 06:32:56;;;;;;;12.43;10.35;;;;;;;13.49;96.50;99808.82;1782543;80;21014;-88
2021/08/30 06:35:22;;;;;;;13.32;10.50;;;;;;;13.52;96.80;99809.40;1777887;79;21491;-89
2021/08/30 06:37:48;;;;;;;13.20;10.08;;;;;;;13.54;96.73;99808.75;1779884;79;21032;-89
2021/08/30 06:40:14;;;;;;;15.03;10.63;;;;;;;13.56;96.44;99809.45;1785439;79;21498;-89
2021/08/30 06:42:40;;;;;;;15.32;9.98;;;;;;;13.61;96.66;99811.17;1781314;79;21053;-88
2021/08/30 06:45:08;;;;;;;14.33;10.45;;;;;;;13.67;96.36;99804.96;1783455;79;20962;-89
2021/08/30 06:47:34;;;;;;;11.50;10.25;;;;;;;13.76;96.77;99804.10;1782824;80;21007;-89
2021/08/30 06:50:00;;;;;;;16.05;11.25;;;;;;;13.80;96.70;99801.00;1781091;79;21031;-89
2021/08/30 06:52:26;;;;;;;15.60;11.53;;;;;;;13.83;96.67;99804.70;1773259;80;21008;-89
2021/08/30 06:54:52;;;;;;;14.98;10.45;;;;;;;13.88;96.49;99800.77;1775359;79;20965;-89
2021/08/30 06:57:18;;;;;;;11.85;10.35;;;;;;;13.92;96.64;99802.14;1777474;80;20951;-89
2021/08/30 06:59:44;;;;;;;14.18;11.18;;;;;;;13.95;96.93;99798.73;1782525;80;20918;-89
2021/08/30 07:02:10;;;;;;;18.00;11.70;;;;;;;14.01;96.94;99794.64;1782758;80;20987;-89
2021/08/30 07:04:36;;;;;;;14.68;11.10;;;;;;;14.05;96.79;99798.69;1775115;80;20986;-89
2021/08/30 07:07:02;;;;;;;13.62;10.65;;;;;;;14.12;96.89;99794.96;1781723;79;21472;-90
2021/08/30 07:09:28;;;;;;;12.88;10.00;;;;;;;14.17;96.84;99799.31;1782741;80;21022;-89
2021/08/30 07:11:55;;;;;;;13.25;11.43;;;;;;;14.22;96.88;99802.37;1782637;80;20965;-89
2021/08/30 07:14:20;;;;;;;14.78;9.90;;;;;;;14.27;96.45;99805.41;1783346;80;20970;-89
2021/08/30 07:16:46;;;;;;;12.47;11.18;;;;;;;14.29;96.17;99806.11;1784391;80;20997;-90
2021/08/30 07:19:12;;;;;;;14.28;11.35;;;;;;;14.30;96.32;99797.98;1784748;80;20952;-90
2021/08/30 07:21:38;;;;;;;13.58;10.70;;;;;;;14.32;96.29;99800.50;1784155;80;20985;-89
2021/08/30 07:24:05;;;;;;;11.33;9.60;;;;;;;14.36;96.42;99793.08;1778589;79;21029;-90
2021/08/30 07:26:31;;;;;;;13.58;9.68;;;;;;;14.38;96.07;99796.41;1783806;80;20974;-90
2021/08/30 07:28:57;;;;;;;13.62;10.03;;;;;;;14.40;96.33;99795.77;1782918;80;20964;-89
2021/08/30 07:31:23;;;;;;;12.50;10.58;;;;;;;14.42;96.44;99802.61;1781645;80;21046;-89
2021/08/30 07:33:49;;;;;;;13.10;10.72;;;;;;;14.45;96.31;99802.31;1782055;80;21128;-90
2021/08/30 07:36:15;;;;;;;11.73;10.03;;;;;;;14.50;96.24;99800.06;1782035;80;21014;-90
2021/08/30 07:38:42;;;;;;;11.93;9.75;;;;;;;14.55;96.49;99808.92;1782143;80;21454;-90
2021/08/30 07:41:08;;;;;;;13.70;11.08;;;;;;;14.59;96.37;99810.29;1780841;80;21771;-90
2021/08/30 07:43:34;;;;;;;17.27;12.07;;;;;;;14.61;96.02;99804.81;1783122;80;20979;-90
2021/08/30 07:46:01;;;;;;;15.25;12.58;;;;;;;14.65;96.46;99807.04;1776924;80;21029;-90
2021/08/30 07:48:28;;;;;;;16.25;12.43;;;;;;;14.69;96.35;99813.72;1771683;80;21040;-89
2021/08/30 07:50:55;;;;;;;13.78;12.25;;;;;;;14.74;96.19;99809.27;1764918;80;20968;-89
2021/08/30 07:53:26;;;;;;;14.10;10.78;;;;;;;14.78;96.31;99813.31;1768539;80;21052;-89
2021/08/30 07:55:50;;;;;;;12.65;10.43;;;;;;;14.82;96.16;99818.66;1769937;80;21094;-90
2021/08/30 07:58:16;;;;;;;13.70;11.93;;;;;;;14.84;95.89;99818.50;1764106;80;21666;-89
2021/08/30 08:00:42;;;;;;;13.32;10.90;;;;;;;14.87;95.94;99814.20;1776864;80;21061;-89
2021/08/30 08:03:08;;;;;;;13.30;11.48;;;;;;;14.90;96.06;99818.72;1761366;80;20986;-89
2021/08/30 08:05:35;;;;;;;16.73;13.70;;;;;;;14.93;96.03;99815.77;1772085;80;21006;-90
2021/08/30 08:08:04;;;;;;;13.40;11.00;;;;;;;14.98;96.19;99808.19;1766738;80;21046;-89
2021/08/30 08:10:29;;;;;;;12.63;10.10;;;;;;;14.98;96.23;99803.37;1765553;80;21056;-87
2021/08/30 08:12:55;;;;;;;12.90;10.72;;;;;;;15.13;96.66;99813.78;1777139;80;21003;-89
2021/08/30 08:15:21;;;;;;;13.50;10.50;;;;;;;15.20;96.29;99820.66;1782157;80;21563;-89
2021/08/30 08:17:47;;;;;;;11.05;9.23;;;;;;;15.27;96.21;99819.55;1775451;80;21021;-90
2021/08/30 08:20:14;;;;;;;11.70;10.00;;;;;;;15.30;96.04;99820.09;1783188;80;20956;-89
2021/08/30 08:22:42;;;;;;;11.08;8.38;;;;;;;15.35;95.97;99831.59;1780664;80;21088;-89
2021/08/30 08:25:10;;;;;;;10.25;8.70;;;;;;;15.39;95.48;99826.30;1774250;80;21072;-86
2021/08/30 08:27:36;;;;;;;11.12;9.18;;;;;;;15.42;95.41;99832.13;1766829;80;20966;-90
2021/08/30 08:30:05;;;;;;;10.88;8.13;;;;;;;15.46;95.06;99833.52;1776285;80;20986;-87
2021/08/30 08:32:32;;;;;;;9.55;7.87;;;;;;;15.52;94.95;99836.03;1775658;80;20978;-89
2021/08/30 08:34:58;;;;;;;11.20;8.40;;;;;;;15.55;95.01;99834.39;1775993;79;20970;-89
2021/08/30 08:37:24;;;;;;;9.68;8.00;;;;;;;15.60;94.71;99834.77;1787705;79;21594;-88
2021/08/30 08:39:50;;;;;;;9.78;8.25;;;;;;;15.63;94.81;99832.27;1766804;80;20973;-89
2021/08/30 08:42:16;;;;;;;8.73;7.35;;;;;;;15.65;94.26;99836.45;1776861;79;20963;-90
2021/08/30 08:44:47;;;;;;;8.88;7.05;;;;;;;15.69;94.34;99834.34;1772045;80;21327;-90
2021/08/30 08:47:17;;;;;;;9.18;7.17;;;;;;;15.70;93.60;99839.53;1776742;79;20978;-89
2021/08/30 08:49:51;;;;;;;7.67;6.87;;;;;;;15.70;93.41;99833.37;1776477;80;21028;-89
2021/08/30 08:52:21;;;;;;;8.60;7.17;;;;;;;15.70;93.63;99834.71;1768415;80;21021;-89
2021/08/30 08:54:47;;;;;;;7.00;6.15;;;;;;;15.75;94.08;99839.55;1776094;79;21554;-89
2021/08/30 08:57:13;;;;;;;8.43;6.72;;;;;;;15.79;93.94;99838.23;1772326;80;21308;-88
2021/08/30 08:59:40;;;;;;;7.80;6.55;;;;;;;15.81;93.33;99841.58;1776771;80;20950;-87
2021/08/30 09:02:07;;;;;;;7.72;6.45;;;;;;;15.80;92.96;99843.92;1775254;79;21470;-89
2021/08/30 09:04:35;;;;;;;8.93;7.67;;;;;;;15.77;92.68;99837.08;1772525;79;21524;-89
2021/08/30 09:07:13;;;;;;;9.08;6.45;;;;;;;15.77;92.86;99841.06;1774017;80;21565;-89
2021/08/30 09:09:41;;;;;;;6.97;5.67;;;;;;;15.80;92.93;99843.41;1770433;80;20964;-89
2021/08/30 09:12:21;;;;;;;8.23;6.95;;;;;;;15.83;92.71;99828.97;1771862;80;20986;-89
2021/08/30 09:14:47;;;;;;;14.78;7.17;;;;;;;15.85;93.06;99831.79;1776913;79;20999;-88
2021/08/30 09:17:14;;;;;;;8.45;6.12;;;;;;;15.86;92.54;99829.48;1778682;79;21006;-89
2021/08/30 09:19:41;;;;;;;7.03;6.05;;;;;;;15.86;92.55;99832.15;1769001;80;20985;-90
2021/08/30 09:22:10;;;;;;;7.40;5.85;;;;;;;15.88;92.74;99823.50;1775159;79;20974;-89
2021/08/30 09:24:37;;;;;;;7.45;5.47;;;;;;;15.90;92.83;99827.34;1776122;79;21440;-89
2021/08/30 09:27:10;;;;;;;6.95;5.75;;;;;;;15.91;92.20;99823.19;1779445;80;21028;-90
2021/08/30 09:29:42;;;;;;;7.08;5.37;;;;;;;15.89;91.82;99821.20;1766092;80;21449;-89
2021/08/30 09:32:16;;;;;;;7.40;5.97;;;;;;;15.87;91.64;99821.84;1777778;79;21503;-90
2021/08/30 09:34:57;;;;;;;10.53;5.67;;;;;;;15.90;91.87;99818.03;1777618;79;21037;-90
2021/08/30 09:37:25;;;;;;;7.47;5.75;;;;;;;15.89;91.82;99826.52;1775646;79;21014;-90
2021/08/30 09:39:57;;;;;;;8.30;6.37;;;;;;;15.90;91.90;99822.86;1758310;80;21005;-90
2021/08/30 09:42:25;;;;;;;7.78;5.97;;;;;;;15.92;91.85;99830.16;1765893;80;21000;-90
2021/08/30 09:44:54;;;;;;;8.53;5.87;;;;;;;15.95;92.03;99827.19;1773864;79;20982;-90
2021/08/30 09:47:21;;;;;;;6.70;5.30;;;;;;;15.98;91.83;99819.39;1775438;80;21052;-90
2021/08/30 09:49:52;;;;;;;7.85;5.78;;;;;;;16.01;92.07;99819.58;1767615;80;21122;-90
2021/08/30 09:52:20;;;;;;;8.18;6.30;;;;;;;16.03;91.81;99819.77;1765551;79;21112;-89
2021/08/30 09:54:46;;;;;;;7.55;5.15;;;;;;;16.00;91.31;99821.41;1768972;80;20970;-90
2021/08/30 09:57:15;;;;;;;7.10;5.87;;;;;;;15.99;91.50;99821.08;1777188;80;20991;-89
2021/08/30 09:59:45;;;;;;;8.75;6.37;;;;;;;16.02;91.67;99826.56;1765240;80;21474;-89
2021/08/30 10:02:17;;;;;;;7.80;5.62;;;;;;;16.03;91.49;99829.58;1774010;80;21006;-90
2021/08/30 10:04:44;;;;;;;7.92;6.25;;;;;;;15.99;91.01;99821.55;1777117;80;21027;-87
2021/08/30 10:07:11;;;;;;;6.47;5.35;;;;;;;15.95;90.93;99824.53;1775136;80;20994;-89
2021/08/30 10:09:41;;;;;;;7.45;6.05;;;;;;;15.94;91.13;99824.20;1734025;80;20986;-89
2021/08/30 10:12:08;;;;;;;9.38;6.37;;;;;;;15.94;91.27;99826.86;1765629;80;21026;-90
2021/08/30 10:14:35;;;;;;;8.25;6.12;;;;;;;15.95;91.35;99828.52;1770284;79;21032;-90
2021/08/30 10:17:04;;;;;;;6.97;6.10;;;;;;;15.97;91.26;99827.55;1775749;80;21504;-90
2021/08/30 10:19:35;;;;;;;6.65;5.70;;;;;;;15.97;91.28;99828.38;1772028;79;21068;-90
2021/08/30 10:22:16;;;;;;;6.92;6.00;;;;;;;15.98;91.28;99828.70;1764727;80;21053;-89
2021/08/30 10:24:43;;;;;;;8.08;6.00;;;;;;;15.98;91.35;99827.38;1778572;79;21571;-87
2021/08/30 10:27:10;;;;;;;8.05;7.08;;;;;;;15.97;91.35;99824.89;1775598;80;20990;-88
2021/08/30 10:29:39;;;;;;;6.62;5.45;;;;;;;15.97;91.35;99826.22;1777928;79;20962;-90
2021/08/30 10:32:09;;;;;;;8.20;6.47;;;;;;;15.95;91.35;99825.86;1772896;80;21008;-90
2021/08/30 10:34:38;;;;;;;6.92;5.97;;;;;;;15.93;91.12;99826.53;1778304;79;21027;-90
2021/08/30 10:37:06;;;;;;;7.90;5.92;;;;;;;15.90;90.94;99830.01;1770941;80;21556;-90
2021/08/30 10:39:39;;;;;;;9.33;6.85;;;;;;;15.89;91.49;99829.64;1772342;80;20986;-87
2021/08/30 10:42:08;;;;;;;9.30;7.65;;;;;;;15.91;91.67;99829.00;1776731;79;21135;-90
2021/08/30 10:44:34;;;;;;;8.53;7.05;;;;;;;15.90;91.46;99831.34;1763929;80;20974;-89
2021/08/30 10:47:02;;;;;;;9.40;6.72;;;;;;;15.92;91.79;99827.50;1772513;80;21621;-90
2021/08/30 10:49:31;;;;;;;7.92;6.15;;;;;;;15.93;91.59;99834.52;1773910;80;21018;-90
2021/08/30 10:52:14;;;;;;;8.45;6.45;;;;;;;15.95;91.63;99835.17;1774303;79;20984;-90
2021/08/30 10:54:58;;;;;;;8.63;7.03;;;;;;;15.94;91.50;99830.85;1760876;79;21052;-90
2021/08/30 10:57:38;;;;;;;7.97;6.62;;;;;;;15.94;91.81;99835.34;1772173;80;21613;-90
2021/08/30 11:00:07;;;;;;;6.97;6.05;;;;;;;15.96;91.66;99832.04;1768932;80;20980;-90
2021/08/30 11:02:41;;;;;;;8.03;6.58;;;;;;;15.97;92.09;99835.53;1768023;80;20985;-90
2021/08/30 11:05:08;;;;;;;8.85;6.60;;;;;;;15.97;91.99;99832.87;1741568;80;21033;-90
2021/08/30 11:07:36;;;;;;;7.00;6.30;;;;;;;15.96;92.08;99832.04;1771485;80;20965;-90
2021/08/30 11:10:07;;;;;;;7.97;6.83;;;;;;;15.96;91.88;99841.35;1768574;80;20962;-90
2021/08/30 11:12:34;;;;;;;7.75;6.37;;;;;;;15.94;91.75;99834.02;1769001;79;20981;-90
2021/08/30 11:15:01;;;;;;;9.95;6.58;;;;;;;15.94;91.78;99839.33;1769095;79;21526;-90
2021/08/30 11:17:32;;;;;;;6.87;5.92;;;;;;;15.93;91.93;99841.17;1774922;80;21036;-90
2021/08/30 11:20:00;;;;;;;6.37;5.55;;;;;;;15.94;91.97;99840.16;1772796;80;21034;-89
2021/08/30 11:22:27;;;;;;;7.53;6.12;;;;;;;15.98;92.36;99838.52;1770097;79;20969;-89
2021/08/30 11:24:54;;;;;;;8.60;6.22;;;;;;;16.00;91.95;99837.38;1771624;80;20999;-89
2021/08/30 11:27:29;;;;;;;7.75;6.35;;;;;;;15.98;91.69;99838.52;1771897;79;20947;-89
2021/08/30 11:29:56;;;;;;;7.53;5.95;;;;;;;15.99;92.08;99842.84;1777320;80;22280;-88
2021/08/30 11:32:28;;;;;;;8.25;6.47;;;;;;;16.02;92.28;99842.53;1772732;80;21703;-89